sensor_id;sensor_type;location;lat;lon;timestamp;temperature;humidity
26907;DHT22;14472;56.880;16.658;2023-10-08T00:00:48;8.50;1.00
26907;DHT22;14472;56.880;16.658;2023-10-08T00:03:21;8.50;1.00
26907;DHT22;14472;56.880;16.658;2023-10-08T00:05:48;8.50;1.00
26907;DHT22;14472;56.880;16.658;2023-10-08T00:08:15;8.40;1.00
26907;DHT22;14472;56.880;16.658;2023-10-08T00:10:42;8.50;1.00
26907;DHT22;14472;56.880;16.658;2023-10-08T00:13:10;8.40;1.00
26907;DHT22;14472;56.880;16.658;2023-10-08T00:15:39;8.30;1.00
26907;DHT22;14472;56.880;16.658;2023-10-08T00:18:14;8.30;1.00
26907;DHT22;14472;56.880;16.658;2023-10-08T00:20:41;8.30;1.00
26907;DHT22;14472;56.880;16.658;2023-10-08T00:23:39;8.30;1.00
26907;DHT22;14472;56.880;16.658;2023-10-08T00:26:10;8.30;1.00
26907;DHT22;14472;56.880;16.658;2023-10-08T00:28:37;8.20;1.00
26907;DHT22;14472;56.880;16.658;2023-10-08T00:31:05;8.10;1.00
26907;DHT22;14472;56.880;16.658;2023-10-08T00:33:37;8.10;1.00
26907;DHT22;14472;56.880;16.658;2023-10-08T00:36:03;8.20;1.00
26907;DHT22;14472;56.880;16.658;2023-10-08T00:38:46;8.10;1.00
26907;DHT22;14472;56.880;16.658;2023-10-08T00:41:17;8.00;1.00
26907;DHT22;14472;56.880;16.658;2023-10-08T00:44:07;8.10;1.00
26907;DHT22;14472;56.880;16.658;2023-10-08T00:46:33;8.10;1.00
26907;DHT22;14472;56.880;16.658;2023-10-08T00:49:08;8.00;1.00
26907;DHT22;14472;56.880;16.658;2023-10-08T00:51:58;8.00;1.00
26907;DHT22;14472;56.880;16.658;2023-10-08T00:54:35;8.10;1.00
26907;DHT22;14472;56.880;16.658;2023-10-08T00:57:19;8.10;1.00
26907;DHT22;14472;56.880;16.658;2023-10-08T00:59:47;8.00;1.00
26907;DHT22;14472;56.880;16.658;2023-10-08T01:02:23;8.00;1.00
26907;DHT22;14472;56.880;16.658;2023-10-08T01:04:56;8.00;1.00
26907;DHT22;14472;56.880;16.658;2023-10-08T01:07:23;8.00;1.00
26907;DHT22;14472;56.880;16.658;2023-10-08T01:09:50;8.00;1.00
26907;DHT22;14472;56.880;16.658;2023-10-08T01:12:21;8.00;1.00
26907;DHT22;14472;56.880;16.658;2023-10-08T01:14:48;8.10;1.00
26907;DHT22;14472;56.880;16.658;2023-10-08T01:17:17;8.10;1.00
26907;DHT22;14472;56.880;16.658;2023-10-08T01:19:47;8.00;1.00
26907;DHT22;14472;56.880;16.658;2023-10-08T01:22:16;8.00;1.00
26907;DHT22;14472;56.880;16.658;2023-10-08T01:24:48;8.10;1.00
26907;DHT22;14472;56.880;16.658;2023-10-08T01:27:18;8.10;1.00
26907;DHT22;14472;56.880;16.658;2023-10-08T01:29:53;8.20;1.00
26907;DHT22;14472;56.880;16.658;2023-10-08T01:32:20;8.20;1.00
26907;DHT22;14472;56.880;16.658;2023-10-08T01:34:48;8.20;1.00
26907;DHT22;14472;56.880;16.658;2023-10-08T01:37:17;8.10;1.00
26907;DHT22;14472;56.880;16.658;2023-10-08T01:39:44;8.10;1.00
26907;DHT22;14472;56.880;16.658;2023-10-08T01:42:13;8.00;1.00
26907;DHT22;14472;56.880;16.658;2023-10-08T01:44:48;8.10;1.00
26907;DHT22;14472;56.880;16.658;2023-10-08T01:47:16;8.00;1.00
26907;DHT22;14472;56.880;16.658;2023-10-08T01:49:43;8.00;1.00
26907;DHT22;14472;56.880;16.658;2023-10-08T01:52:10;8.00;1.00
26907;DHT22;14472;56.880;16.658;2023-10-08T01:54:49;7.90;1.00
26907;DHT22;14472;56.880;16.658;2023-10-08T01:57:15;8.00;1.00
26907;DHT22;14472;56.880;16.658;2023-10-08T01:59:42;8.00;1.00
26907;DHT22;14472;56.880;16.658;2023-10-08T02:02:09;8.00;1.00
26907;DHT22;14472;56.880;16.658;2023-10-08T02:04:35;7.90;1.00
26907;DHT22;14472;56.880;16.658;2023-10-08T02:07:04;8.00;1.00
26907;DHT22;14472;56.880;16.658;2023-10-08T02:09:34;8.00;1.00
26907;DHT22;14472;56.880;16.658;2023-10-08T02:11:59;8.00;1.00
26907;DHT22;14472;56.880;16.658;2023-10-08T02:14:25;8.00;1.00
26907;DHT22;14472;56.880;16.658;2023-10-08T02:16:51;8.00;1.00
26907;DHT22;14472;56.880;16.658;2023-10-08T02:19:24;8.00;1.00
26907;DHT22;14472;56.880;16.658;2023-10-08T02:21:54;8.00;1.00
26907;DHT22;14472;56.880;16.658;2023-10-08T02:24:21;8.10;1.00
26907;DHT22;14472;56.880;16.658;2023-10-08T02:26:51;8.10;1.00
26907;DHT22;14472;56.880;16.658;2023-10-08T02:29:17;8.10;1.00
26907;DHT22;14472;56.880;16.658;2023-10-08T02:31:43;8.10;1.00
26907;DHT22;14472;56.880;16.658;2023-10-08T02:34:09;8.00;1.00
26907;DHT22;14472;56.880;16.658;2023-10-08T02:36:36;8.00;1.00
26907;DHT22;14472;56.880;16.658;2023-10-08T02:39:05;8.00;1.00
26907;DHT22;14472;56.880;16.658;2023-10-08T02:41:59;8.00;1.00
26907;DHT22;14472;56.880;16.658;2023-10-08T02:44:25;8.00;1.00
26907;DHT22;14472;56.880;16.658;2023-10-08T02:46:52;8.00;1.00
26907;DHT22;14472;56.880;16.658;2023-10-08T02:49:21;7.90;1.00
26907;DHT22;14472;56.880;16.658;2023-10-08T02:51:55;8.00;1.00
26907;DHT22;14472;56.880;16.658;2023-10-08T02:54:21;8.00;1.00
26907;DHT22;14472;56.880;16.658;2023-10-08T02:56:57;7.90;1.00
26907;DHT22;14472;56.880;16.658;2023-10-08T02:59:32;8.00;1.00
26907;DHT22;14472;56.880;16.658;2023-10-08T03:02:14;7.90;1.00
26907;DHT22;14472;56.880;16.658;2023-10-08T03:04:45;7.90;1.00
26907;DHT22;14472;56.880;16.658;2023-10-08T03:07:15;7.90;1.00
26907;DHT22;14472;56.880;16.658;2023-10-08T03:09:51;7.90;1.00
26907;DHT22;14472;56.880;16.658;2023-10-08T03:12:28;7.80;1.00
26907;DHT22;14472;56.880;16.658;2023-10-08T03:15:01;7.80;1.00
26907;DHT22;14472;56.880;16.658;2023-10-08T03:17:38;7.80;1.00
26907;DHT22;14472;56.880;16.658;2023-10-08T03:20:15;7.80;1.00
26907;DHT22;14472;56.880;16.658;2023-10-08T03:22:59;7.90;1.00
26907;DHT22;14472;56.880;16.658;2023-10-08T03:25:25;7.80;1.00
26907;DHT22;14472;56.880;16.658;2023-10-08T03:27:52;7.90;1.00
26907;DHT22;14472;56.880;16.658;2023-10-08T03:30:20;7.90;1.00
26907;DHT22;14472;56.880;16.658;2023-10-08T03:32:46;7.80;1.00
26907;DHT22;14472;56.880;16.658;2023-10-08T03:35:21;7.70;1.00
26907;DHT22;14472;56.880;16.658;2023-10-08T03:37:54;7.70;1.00
26907;DHT22;14472;56.880;16.658;2023-10-08T03:40:20;7.80;1.00
26907;DHT22;14472;56.880;16.658;2023-10-08T03:43:08;7.80;1.00
26907;DHT22;14472;56.880;16.658;2023-10-08T03:45:45;7.70;1.00
26907;DHT22;14472;56.880;16.658;2023-10-08T03:48:17;7.70;1.00
26907;DHT22;14472;56.880;16.658;2023-10-08T03:50:42;7.70;1.00
26907;DHT22;14472;56.880;16.658;2023-10-08T03:53:09;7.70;1.00
26907;DHT22;14472;56.880;16.658;2023-10-08T03:55:40;7.80;1.00
26907;DHT22;14472;56.880;16.658;2023-10-08T03:58:09;7.70;1.00
26907;DHT22;14472;56.880;16.658;2023-10-08T04:00:56;7.70;1.00
26907;DHT22;14472;56.880;16.658;2023-10-08T04:03:37;7.80;1.00
26907;DHT22;14472;56.880;16.658;2023-10-08T04:06:23;7.70;1.00
26907;DHT22;14472;56.880;16.658;2023-10-08T04:08:54;7.70;1.00
26907;DHT22;14472;56.880;16.658;2023-10-08T04:11:38;7.70;1.00
26907;DHT22;14472;56.880;16.658;2023-10-08T04:14:25;7.70;1.00
26907;DHT22;14472;56.880;16.658;2023-10-08T04:16:52;7.70;1.00
26907;DHT22;14472;56.880;16.658;2023-10-08T04:19:19;7.80;1.00
26907;DHT22;14472;56.880;16.658;2023-10-08T04:21:46;7.70;1.00
26907;DHT22;14472;56.880;16.658;2023-10-08T04:24:25;7.70;1.00
26907;DHT22;14472;56.880;16.658;2023-10-08T04:26:59;7.70;1.00
26907;DHT22;14472;56.880;16.658;2023-10-08T04:29:29;7.70;1.00
26907;DHT22;14472;56.880;16.658;2023-10-08T04:32:00;7.80;1.00
26907;DHT22;14472;56.880;16.658;2023-10-08T04:34:30;7.80;1.00
26907;DHT22;14472;56.880;16.658;2023-10-08T04:36:58;7.80;1.00
26907;DHT22;14472;56.880;16.658;2023-10-08T04:39:27;7.70;1.00
26907;DHT22;14472;56.880;16.658;2023-10-08T04:41:59;7.80;1.00
26907;DHT22;14472;56.880;16.658;2023-10-08T04:44:32;7.70;1.00
26907;DHT22;14472;56.880;16.658;2023-10-08T04:46:59;7.70;1.00
26907;DHT22;14472;56.880;16.658;2023-10-08T04:49:30;7.70;1.00
26907;DHT22;14472;56.880;16.658;2023-10-08T04:52:03;7.60;1.00
26907;DHT22;14472;56.880;16.658;2023-10-08T04:54:49;7.60;1.00
26907;DHT22;14472;56.880;16.658;2023-10-08T04:57:20;7.70;1.00
26907;DHT22;14472;56.880;16.658;2023-10-08T04:59:51;7.60;1.00
26907;DHT22;14472;56.880;16.658;2023-10-08T05:02:18;7.60;1.00
26907;DHT22;14472;56.880;16.658;2023-10-08T05:05:14;7.60;1.00
26907;DHT22;14472;56.880;16.658;2023-10-08T05:07:43;7.50;1.00
26907;DHT22;14472;56.880;16.658;2023-10-08T05:10:13;7.50;1.00
26907;DHT22;14472;56.880;16.658;2023-10-08T05:12:45;7.50;1.00
26907;DHT22;14472;56.880;16.658;2023-10-08T05:15:27;7.50;1.00
26907;DHT22;14472;56.880;16.658;2023-10-08T05:17:59;7.50;1.00
26907;DHT22;14472;56.880;16.658;2023-10-08T05:20:39;7.50;1.00
26907;DHT22;14472;56.880;16.658;2023-10-08T05:23:14;7.50;1.00
26907;DHT22;14472;56.880;16.658;2023-10-08T05:26:06;7.50;1.00
26907;DHT22;14472;56.880;16.658;2023-10-08T05:28:37;7.50;1.00
26907;DHT22;14472;56.880;16.658;2023-10-08T05:31:27;7.50;1.00
26907;DHT22;14472;56.880;16.658;2023-10-08T05:34:15;7.50;1.00
26907;DHT22;14472;56.880;16.658;2023-10-08T05:36:49;7.50;1.00
26907;DHT22;14472;56.880;16.658;2023-10-08T05:39:30;7.50;1.00
26907;DHT22;14472;56.880;16.658;2023-10-08T05:42:06;7.40;1.00
26907;DHT22;14472;56.880;16.658;2023-10-08T05:44:45;7.40;1.00
26907;DHT22;14472;56.880;16.658;2023-10-08T05:47:16;7.40;1.00
26907;DHT22;14472;56.880;16.658;2023-10-08T05:50:04;7.40;1.00
26907;DHT22;14472;56.880;16.658;2023-10-08T05:52:47;7.30;1.00
26907;DHT22;14472;56.880;16.658;2023-10-08T05:55:18;7.40;1.00
26907;DHT22;14472;56.880;16.658;2023-10-08T05:58:04;7.30;1.00
26907;DHT22;14472;56.880;16.658;2023-10-08T06:00:42;7.30;1.00
26907;DHT22;14472;56.880;16.658;2023-10-08T06:03:31;7.30;1.00
26907;DHT22;14472;56.880;16.658;2023-10-08T06:06:17;7.30;1.00
26907;DHT22;14472;56.880;16.658;2023-10-08T06:08:43;7.30;1.00
26907;DHT22;14472;56.880;16.658;2023-10-08T06:11:18;7.30;1.00
26907;DHT22;14472;56.880;16.658;2023-10-08T06:14:02;7.30;1.00
26907;DHT22;14472;56.880;16.658;2023-10-08T06:16:36;7.40;1.00
26907;DHT22;14472;56.880;16.658;2023-10-08T06:19:10;7.40;1.00
26907;DHT22;14472;56.880;16.658;2023-10-08T06:21:38;7.30;1.00
26907;DHT22;14472;56.880;16.658;2023-10-08T06:24:05;7.40;1.00
26907;DHT22;14472;56.880;16.658;2023-10-08T06:26:36;7.40;1.00
26907;DHT22;14472;56.880;16.658;2023-10-08T06:29:11;7.30;1.00
26907;DHT22;14472;56.880;16.658;2023-10-08T06:31:45;7.50;1.00
26907;DHT22;14472;56.880;16.658;2023-10-08T06:34:17;7.40;1.00
26907;DHT22;14472;56.880;16.658;2023-10-08T06:36:49;7.50;1.00
26907;DHT22;14472;56.880;16.658;2023-10-08T06:39:23;7.50;1.00
26907;DHT22;14472;56.880;16.658;2023-10-08T06:41:59;7.50;1.00
26907;DHT22;14472;56.880;16.658;2023-10-08T06:44:25;7.50;1.00
26907;DHT22;14472;56.880;16.658;2023-10-08T06:46:53;7.50;1.00
26907;DHT22;14472;56.880;16.658;2023-10-08T06:49:21;7.60;1.00
26907;DHT22;14472;56.880;16.658;2023-10-08T06:51:50;7.70;1.00
26907;DHT22;14472;56.880;16.658;2023-10-08T06:54:16;7.60;1.00
26907;DHT22;14472;56.880;16.658;2023-10-08T06:56:44;7.70;1.00
26907;DHT22;14472;56.880;16.658;2023-10-08T06:59:17;7.80;1.00
26907;DHT22;14472;56.880;16.658;2023-10-08T07:01:43;7.80;1.00
26907;DHT22;14472;56.880;16.658;2023-10-08T07:04:12;7.80;1.00
26907;DHT22;14472;56.880;16.658;2023-10-08T07:06:39;7.90;1.00
26907;DHT22;14472;56.880;16.658;2023-10-08T07:09:06;8.00;1.00
26907;DHT22;14472;56.880;16.658;2023-10-08T07:11:33;8.00;1.00
26907;DHT22;14472;56.880;16.658;2023-10-08T07:14:05;7.90;1.00
26907;DHT22;14472;56.880;16.658;2023-10-08T07:16:34;7.90;1.00
26907;DHT22;14472;56.880;16.658;2023-10-08T07:19:00;8.00;1.00
26907;DHT22;14472;56.880;16.658;2023-10-08T07:21:44;8.20;1.00
26907;DHT22;14472;56.880;16.658;2023-10-08T07:24:14;8.10;1.00
26907;DHT22;14472;56.880;16.658;2023-10-08T07:26:47;8.10;1.00
26907;DHT22;14472;56.880;16.658;2023-10-08T07:29:16;8.10;1.00
26907;DHT22;14472;56.880;16.658;2023-10-08T07:31:47;8.20;1.00
26907;DHT22;14472;56.880;16.658;2023-10-08T07:34:19;8.20;1.00
26907;DHT22;14472;56.880;16.658;2023-10-08T07:36:51;8.20;1.00
26907;DHT22;14472;56.880;16.658;2023-10-08T07:39:18;8.30;1.00
26907;DHT22;14472;56.880;16.658;2023-10-08T07:41:51;8.30;1.00
26907;DHT22;14472;56.880;16.658;2023-10-08T07:44:17;8.40;1.00
26907;DHT22;14472;56.880;16.658;2023-10-08T07:46:52;8.40;1.00
26907;DHT22;14472;56.880;16.658;2023-10-08T07:49:22;8.60;1.00
26907;DHT22;14472;56.880;16.658;2023-10-08T07:51:57;8.60;1.00
26907;DHT22;14472;56.880;16.658;2023-10-08T07:54:25;8.70;1.00
26907;DHT22;14472;56.880;16.658;2023-10-08T07:56:54;8.70;1.00
26907;DHT22;14472;56.880;16.658;2023-10-08T07:59:43;8.70;1.00
26907;DHT22;14472;56.880;16.658;2023-10-08T08:02:14;8.90;1.00
26907;DHT22;14472;56.880;16.658;2023-10-08T08:04:41;8.80;1.00
26907;DHT22;14472;56.880;16.658;2023-10-08T08:07:09;8.80;1.00
26907;DHT22;14472;56.880;16.658;2023-10-08T08:09:45;8.90;1.00
26907;DHT22;14472;56.880;16.658;2023-10-08T08:12:21;8.90;1.00
26907;DHT22;14472;56.880;16.658;2023-10-08T08:14:47;9.00;1.00
26907;DHT22;14472;56.880;16.658;2023-10-08T08:17:14;9.10;1.00
26907;DHT22;14472;56.880;16.658;2023-10-08T08:19:44;9.10;1.00
26907;DHT22;14472;56.880;16.658;2023-10-08T08:22:13;9.20;1.00
26907;DHT22;14472;56.880;16.658;2023-10-08T08:24:41;9.30;1.00
26907;DHT22;14472;56.880;16.658;2023-10-08T08:27:11;9.30;1.00
26907;DHT22;14472;56.880;16.658;2023-10-08T08:29:50;9.50;1.00
26907;DHT22;14472;56.880;16.658;2023-10-08T08:32:15;9.50;1.00
26907;DHT22;14472;56.880;16.658;2023-10-08T08:34:47;9.50;1.00
26907;DHT22;14472;56.880;16.658;2023-10-08T08:37:16;9.50;1.00
26907;DHT22;14472;56.880;16.658;2023-10-08T08:39:42;9.50;1.00
26907;DHT22;14472;56.880;16.658;2023-10-08T08:42:08;9.50;1.00
26907;DHT22;14472;56.880;16.658;2023-10-08T08:44:39;9.70;1.00
26907;DHT22;14472;56.880;16.658;2023-10-08T08:47:14;9.70;1.00
26907;DHT22;14472;56.880;16.658;2023-10-08T08:49:44;9.70;1.00
26907;DHT22;14472;56.880;16.658;2023-10-08T08:52:11;9.70;1.00
26907;DHT22;14472;56.880;16.658;2023-10-08T08:54:38;9.80;1.00
26907;DHT22;14472;56.880;16.658;2023-10-08T08:57:04;9.90;1.00
26907;DHT22;14472;56.880;16.658;2023-10-08T08:59:32;9.90;1.00
26907;DHT22;14472;56.880;16.658;2023-10-08T09:02:00;9.90;1.00
26907;DHT22;14472;56.880;16.658;2023-10-08T09:04:30;10.00;1.00
26907;DHT22;14472;56.880;16.658;2023-10-08T09:06:57;9.90;1.00
26907;DHT22;14472;56.880;16.658;2023-10-08T09:09:31;10.00;1.00
26907;DHT22;14472;56.880;16.658;2023-10-08T09:11:57;10.10;1.00
26907;DHT22;14472;56.880;16.658;2023-10-08T09:14:24;10.10;1.00
26907;DHT22;14472;56.880;16.658;2023-10-08T09:16:53;10.10;1.00
26907;DHT22;14472;56.880;16.658;2023-10-08T09:19:23;10.10;1.00
26907;DHT22;14472;56.880;16.658;2023-10-08T09:22:01;10.20;1.00
26907;DHT22;14472;56.880;16.658;2023-10-08T09:24:32;10.20;1.00
26907;DHT22;14472;56.880;16.658;2023-10-08T09:27:00;10.20;1.00
26907;DHT22;14472;56.880;16.658;2023-10-08T09:29:27;10.20;1.00
26907;DHT22;14472;56.880;16.658;2023-10-08T09:31:55;10.20;1.00
26907;DHT22;14472;56.880;16.658;2023-10-08T09:34:30;10.30;1.00
26907;DHT22;14472;56.880;16.658;2023-10-08T09:36:58;10.30;1.00
26907;DHT22;14472;56.880;16.658;2023-10-08T09:39:29;10.40;1.00
26907;DHT22;14472;56.880;16.658;2023-10-08T09:42:00;10.40;1.00
26907;DHT22;14472;56.880;16.658;2023-10-08T09:44:28;10.40;1.00
26907;DHT22;14472;56.880;16.658;2023-10-08T09:49:56;10.60;1.00
26907;DHT22;14472;56.880;16.658;2023-10-08T09:52:31;10.60;1.00
26907;DHT22;14472;56.880;16.658;2023-10-08T09:55:07;10.60;1.00
26907;DHT22;14472;56.880;16.658;2023-10-08T09:57:36;10.60;1.00
26907;DHT22;14472;56.880;16.658;2023-10-08T10:00:02;10.60;1.00
26907;DHT22;14472;56.880;16.658;2023-10-08T10:02:30;10.60;1.00
26907;DHT22;14472;56.880;16.658;2023-10-08T10:04:58;10.60;1.00
26907;DHT22;14472;56.880;16.658;2023-10-08T10:07:26;10.80;1.00
26907;DHT22;14472;56.880;16.658;2023-10-08T10:09:54;10.80;1.00
26907;DHT22;14472;56.880;16.658;2023-10-08T10:12:25;10.90;1.00
26907;DHT22;14472;56.880;16.658;2023-10-08T10:14:53;10.90;1.00
26907;DHT22;14472;56.880;16.658;2023-10-08T10:19:59;10.90;1.00
26907;DHT22;14472;56.880;16.658;2023-10-08T10:22:31;10.90;1.00
26907;DHT22;14472;56.880;16.658;2023-10-08T10:24:59;11.00;1.00
26907;DHT22;14472;56.880;16.658;2023-10-08T10:27:29;11.00;1.00
26907;DHT22;14472;56.880;16.658;2023-10-08T10:30:04;10.90;1.00
26907;DHT22;14472;56.880;16.658;2023-10-08T10:32:34;11.10;1.00
26907;DHT22;14472;56.880;16.658;2023-10-08T10:35:00;11.20;1.00
26907;DHT22;14472;56.880;16.658;2023-10-08T10:37:29;11.10;1.00
26907;DHT22;14472;56.880;16.658;2023-10-08T10:40:07;11.10;1.00
26907;DHT22;14472;56.880;16.658;2023-10-08T10:42:38;11.20;1.00
26907;DHT22;14472;56.880;16.658;2023-10-08T10:45:13;11.20;1.00
26907;DHT22;14472;56.880;16.658;2023-10-08T10:47:59;11.20;1.00
26907;DHT22;14472;56.880;16.658;2023-10-08T10:50:39;11.30;1.00
26907;DHT22;14472;56.880;16.658;2023-10-08T10:53:24;11.30;1.00
26907;DHT22;14472;56.880;16.658;2023-10-08T10:55:52;11.30;1.00
26907;DHT22;14472;56.880;16.658;2023-10-08T10:58:28;11.20;1.00
26907;DHT22;14472;56.880;16.658;2023-10-08T11:01:04;11.40;1.00
26907;DHT22;14472;56.880;16.658;2023-10-08T11:03:50;11.40;1.00
26907;DHT22;14472;56.880;16.658;2023-10-08T11:06:20;11.50;1.00
26907;DHT22;14472;56.880;16.658;2023-10-08T11:08:50;11.50;1.00
26907;DHT22;14472;56.880;16.658;2023-10-08T11:11:18;11.50;1.00
26907;DHT22;14472;56.880;16.658;2023-10-08T11:13:44;11.50;1.00
26907;DHT22;14472;56.880;16.658;2023-10-08T11:16:17;11.50;1.00
26907;DHT22;14472;56.880;16.658;2023-10-08T11:18:47;11.50;1.00
26907;DHT22;14472;56.880;16.658;2023-10-08T11:21:16;11.50;1.00
26907;DHT22;14472;56.880;16.658;2023-10-08T11:23:48;11.70;1.00
26907;DHT22;14472;56.880;16.658;2023-10-08T11:26:37;11.70;1.00
26907;DHT22;14472;56.880;16.658;2023-10-08T11:29:14;11.70;1.00
26907;DHT22;14472;56.880;16.658;2023-10-08T11:31:43;11.80;1.00
26907;DHT22;14472;56.880;16.658;2023-10-08T11:34:11;11.90;1.00
26907;DHT22;14472;56.880;16.658;2023-10-08T11:36:39;11.80;1.00
26907;DHT22;14472;56.880;16.658;2023-10-08T11:39:39;11.90;1.00
26907;DHT22;14472;56.880;16.658;2023-10-08T11:42:11;11.90;1.00
26907;DHT22;14472;56.880;16.658;2023-10-08T11:44:55;11.90;1.00
26907;DHT22;14472;56.880;16.658;2023-10-08T11:47:21;11.90;1.00
26907;DHT22;14472;56.880;16.658;2023-10-08T11:49:47;11.90;1.00
26907;DHT22;14472;56.880;16.658;2023-10-08T11:52:16;11.80;1.00
26907;DHT22;14472;56.880;16.658;2023-10-08T11:54:46;11.90;1.00
26907;DHT22;14472;56.880;16.658;2023-10-08T11:57:14;11.90;1.00
26907;DHT22;14472;56.880;16.658;2023-10-08T11:59:40;12.00;1.00
26907;DHT22;14472;56.880;16.658;2023-10-08T12:02:06;12.00;1.00
26907;DHT22;14472;56.880;16.658;2023-10-08T12:04:32;12.00;1.00
26907;DHT22;14472;56.880;16.658;2023-10-08T12:06:58;12.00;1.00
26907;DHT22;14472;56.880;16.658;2023-10-08T12:09:28;12.00;1.00
26907;DHT22;14472;56.880;16.658;2023-10-08T12:11:54;12.00;1.00
26907;DHT22;14472;56.880;16.658;2023-10-08T12:14:21;12.00;1.00
26907;DHT22;14472;56.880;16.658;2023-10-08T12:16:52;12.00;1.00
26907;DHT22;14472;56.880;16.658;2023-10-08T12:19:17;12.10;1.00
26907;DHT22;14472;56.880;16.658;2023-10-08T12:21:44;12.10;1.00
26907;DHT22;14472;56.880;16.658;2023-10-08T12:24:12;12.20;1.00
26907;DHT22;14472;56.880;16.658;2023-10-08T12:26:39;12.20;1.00
26907;DHT22;14472;56.880;16.658;2023-10-08T12:29:14;12.20;1.00
26907;DHT22;14472;56.880;16.658;2023-10-08T12:31:40;12.20;1.00
26907;DHT22;14472;56.880;16.658;2023-10-08T12:34:06;12.20;1.00
26907;DHT22;14472;56.880;16.658;2023-10-08T12:36:32;12.20;1.00
26907;DHT22;14472;56.880;16.658;2023-10-08T12:39:01;12.20;1.00
26907;DHT22;14472;56.880;16.658;2023-10-08T12:41:34;12.20;1.00
26907;DHT22;14472;56.880;16.658;2023-10-08T12:44:04;12.20;1.00
26907;DHT22;14472;56.880;16.658;2023-10-08T12:46:32;12.30;1.00
26907;DHT22;14472;56.880;16.658;2023-10-08T12:48:59;12.20;1.00
26907;DHT22;14472;56.880;16.658;2023-10-08T12:51:27;12.30;1.00
26907;DHT22;14472;56.880;16.658;2023-10-08T12:53:57;12.30;1.00
26907;DHT22;14472;56.880;16.658;2023-10-08T12:56:33;12.30;1.00
26907;DHT22;14472;56.880;16.658;2023-10-08T12:59:19;12.40;1.00
26907;DHT22;14472;56.880;16.658;2023-10-08T13:01:49;12.40;1.00
26907;DHT22;14472;56.880;16.658;2023-10-08T13:04:22;12.40;1.00
26907;DHT22;14472;56.880;16.658;2023-10-08T13:06:54;12.50;1.00
26907;DHT22;14472;56.880;16.658;2023-10-08T13:09:25;12.50;1.00
26907;DHT22;14472;56.880;16.658;2023-10-08T13:11:51;12.50;1.00
26907;DHT22;14472;56.880;16.658;2023-10-08T13:14:17;12.50;1.00
26907;DHT22;14472;56.880;16.658;2023-10-08T13:16:42;12.60;1.00
26907;DHT22;14472;56.880;16.658;2023-10-08T13:19:10;12.60;1.00
26907;DHT22;14472;56.880;16.658;2023-10-08T13:21:36;12.70;1.00
26907;DHT22;14472;56.880;16.658;2023-10-08T13:24:03;12.70;1.00
26907;DHT22;14472;56.880;16.658;2023-10-08T13:26:30;12.60;1.00
26907;DHT22;14472;56.880;16.658;2023-10-08T13:28:57;12.50;1.00
26907;DHT22;14472;56.880;16.658;2023-10-08T13:31:24;12.50;1.00
26907;DHT22;14472;56.880;16.658;2023-10-08T13:33:50;12.60;1.00
26907;DHT22;14472;56.880;16.658;2023-10-08T13:36:18;12.50;1.00
26907;DHT22;14472;56.880;16.658;2023-10-08T13:38:44;12.50;1.00
26907;DHT22;14472;56.880;16.658;2023-10-08T13:41:11;12.40;1.00
26907;DHT22;14472;56.880;16.658;2023-10-08T13:43:50;12.50;1.00
26907;DHT22;14472;56.880;16.658;2023-10-08T13:46:24;12.40;1.00
26907;DHT22;14472;56.880;16.658;2023-10-08T13:48:50;12.40;1.00
26907;DHT22;14472;56.880;16.658;2023-10-08T13:51:22;12.40;1.00
26907;DHT22;14472;56.880;16.658;2023-10-08T13:53:55;12.40;1.00
26907;DHT22;14472;56.880;16.658;2023-10-08T13:56:28;12.50;1.00
26907;DHT22;14472;56.880;16.658;2023-10-08T13:58:57;12.50;1.00
26907;DHT22;14472;56.880;16.658;2023-10-08T14:01:39;12.40;1.00
26907;DHT22;14472;56.880;16.658;2023-10-08T14:04:08;12.40;1.00
26907;DHT22;14472;56.880;16.658;2023-10-08T14:06:38;12.40;1.00
26907;DHT22;14472;56.880;16.658;2023-10-08T14:09:08;12.40;1.00
26907;DHT22;14472;56.880;16.658;2023-10-08T14:11:38;12.40;1.00
26907;DHT22;14472;56.880;16.658;2023-10-08T14:14:04;12.40;1.00
26907;DHT22;14472;56.880;16.658;2023-10-08T14:16:40;12.50;1.00
26907;DHT22;14472;56.880;16.658;2023-10-08T14:19:12;12.40;1.00
26907;DHT22;14472;56.880;16.658;2023-10-08T14:21:39;12.40;1.00
26907;DHT22;14472;56.880;16.658;2023-10-08T14:24:16;12.40;1.00
26907;DHT22;14472;56.880;16.658;2023-10-08T14:26:42;12.30;1.00
26907;DHT22;14472;56.880;16.658;2023-10-08T14:29:08;12.40;1.00
26907;DHT22;14472;56.880;16.658;2023-10-08T14:31:37;12.40;1.00
26907;DHT22;14472;56.880;16.658;2023-10-08T14:34:04;12.30;1.00
26907;DHT22;14472;56.880;16.658;2023-10-08T14:36:49;12.30;1.00
26907;DHT22;14472;56.880;16.658;2023-10-08T14:39:34;12.40;1.00
26907;DHT22;14472;56.880;16.658;2023-10-08T14:42:29;12.40;1.00
26907;DHT22;14472;56.880;16.658;2023-10-08T14:45:13;12.30;1.00
26907;DHT22;14472;56.880;16.658;2023-10-08T14:47:40;12.30;1.00
26907;DHT22;14472;56.880;16.658;2023-10-08T14:50:07;12.30;1.00
26907;DHT22;14472;56.880;16.658;2023-10-08T14:52:43;12.40;1.00
26907;DHT22;14472;56.880;16.658;2023-10-08T14:55:09;12.40;1.00
26907;DHT22;14472;56.880;16.658;2023-10-08T14:57:35;12.40;1.00
26907;DHT22;14472;56.880;16.658;2023-10-08T15:00:01;12.40;1.00
26907;DHT22;14472;56.880;16.658;2023-10-08T15:02:30;12.30;1.00
26907;DHT22;14472;56.880;16.658;2023-10-08T15:04:56;12.30;1.00
26907;DHT22;14472;56.880;16.658;2023-10-08T15:07:23;12.30;1.00
26907;DHT22;14472;56.880;16.658;2023-10-08T15:09:49;12.30;1.00
26907;DHT22;14472;56.880;16.658;2023-10-08T15:12:15;12.30;1.00
26907;DHT22;14472;56.880;16.658;2023-10-08T15:14:42;12.20;1.00
26907;DHT22;14472;56.880;16.658;2023-10-08T15:17:08;12.20;1.00
26907;DHT22;14472;56.880;16.658;2023-10-08T15:19:35;12.20;1.00
26907;DHT22;14472;56.880;16.658;2023-10-08T15:22:01;12.20;1.00
26907;DHT22;14472;56.880;16.658;2023-10-08T15:24:27;12.20;1.00
26907;DHT22;14472;56.880;16.658;2023-10-08T15:26:55;12.20;1.00
26907;DHT22;14472;56.880;16.658;2023-10-08T15:29:22;12.10;1.00
26907;DHT22;14472;56.880;16.658;2023-10-08T15:31:54;12.10;1.00
26907;DHT22;14472;56.880;16.658;2023-10-08T15:34:24;12.10;1.00
26907;DHT22;14472;56.880;16.658;2023-10-08T15:36:52;12.10;1.00
26907;DHT22;14472;56.880;16.658;2023-10-08T15:39:18;12.00;1.00
26907;DHT22;14472;56.880;16.658;2023-10-08T15:41:51;12.10;1.00
26907;DHT22;14472;56.880;16.658;2023-10-08T15:44:18;12.00;1.00
26907;DHT22;14472;56.880;16.658;2023-10-08T15:46:46;12.00;1.00
26907;DHT22;14472;56.880;16.658;2023-10-08T15:49:12;12.00;1.00
26907;DHT22;14472;56.880;16.658;2023-10-08T15:51:38;11.90;1.00
26907;DHT22;14472;56.880;16.658;2023-10-08T15:54:05;11.90;1.00
26907;DHT22;14472;56.880;16.658;2023-10-08T15:56:31;11.90;1.00
26907;DHT22;14472;56.880;16.658;2023-10-08T15:58:57;11.90;1.00
26907;DHT22;14472;56.880;16.658;2023-10-08T16:01:23;11.70;1.00
26907;DHT22;14472;56.880;16.658;2023-10-08T16:03:51;11.60;1.00
26907;DHT22;14472;56.880;16.658;2023-10-08T16:06:18;11.60;1.00
26907;DHT22;14472;56.880;16.658;2023-10-08T16:08:45;11.60;1.00
26907;DHT22;14472;56.880;16.658;2023-10-08T16:11:11;11.60;1.00